sensor_id;sensor_type;location;lat;lon;timestamp;temperature;humidity
82788;DHT22;72529;51.786;4.662;2024-02-26T00:01:26;8.56;73.78
82788;DHT22;72529;51.786;4.662;2024-02-26T00:03:51;8.65;73.47
82788;DHT22;72529;51.786;4.662;2024-02-26T00:06:17;8.63;73.54
82788;DHT22;72529;51.786;4.662;2024-02-26T00:08:43;8.55;73.81
82788;DHT22;72529;51.786;4.662;2024-02-26T00:11:09;8.65;73.21
82788;DHT22;72529;51.786;4.662;2024-02-26T00:13:35;8.66;73.41
82788;DHT22;72529;51.786;4.662;2024-02-26T00:16:01;8.70;73.09
82788;DHT22;72529;51.786;4.662;2024-02-26T00:18:27;8.66;73.12
82788;DHT22;72529;51.786;4.662;2024-02-26T00:20:52;8.60;73.16
82788;DHT22;72529;51.786;4.662;2024-02-26T00:23:18;8.67;73.47
82788;DHT22;72529;51.786;4.662;2024-02-26T00:25:43;8.69;73.47
82788;DHT22;72529;51.786;4.662;2024-02-26T00:28:10;8.76;73.58
82788;DHT22;72529;51.786;4.662;2024-02-26T00:30:36;8.60;73.30
82788;DHT22;72529;51.786;4.662;2024-02-26T00:33:01;8.62;73.36
82788;DHT22;72529;51.786;4.662;2024-02-26T00:35:27;8.66;73.31
82788;DHT22;72529;51.786;4.662;2024-02-26T00:37:52;8.70;73.39
82788;DHT22;72529;51.786;4.662;2024-02-26T00:40:18;8.63;73.14
82788;DHT22;72529;51.786;4.662;2024-02-26T00:42:44;8.60;73.09
82788;DHT22;72529;51.786;4.662;2024-02-26T00:45:14;8.59;73.28
82788;DHT22;72529;51.786;4.662;2024-02-26T00:47:41;8.62;72.97
82788;DHT22;72529;51.786;4.662;2024-02-26T00:50:07;8.67;73.24
82788;DHT22;72529;51.786;4.662;2024-02-26T00:52:34;8.67;72.63
82788;DHT22;72529;51.786;4.662;2024-02-26T00:54:59;8.59;73.09
82788;DHT22;72529;51.786;4.662;2024-02-26T00:57:25;8.53;73.62
82788;DHT22;72529;51.786;4.662;2024-02-26T00:59:50;8.55;73.42
82788;DHT22;72529;51.786;4.662;2024-02-26T01:02:16;8.52;73.31
82788;DHT22;72529;51.786;4.662;2024-02-26T01:04:41;8.52;73.53
82788;DHT22;72529;51.786;4.662;2024-02-26T01:07:07;8.50;73.67
82788;DHT22;72529;51.786;4.662;2024-02-26T01:09:32;8.49;73.75
82788;DHT22;72529;51.786;4.662;2024-02-26T01:11:57;8.50;73.70
82788;DHT22;72529;51.786;4.662;2024-02-26T01:14:23;8.55;73.83
82788;DHT22;72529;51.786;4.662;2024-02-26T01:16:49;8.60;73.25
82788;DHT22;72529;51.786;4.662;2024-02-26T01:19:14;8.56;73.40
82788;DHT22;72529;51.786;4.662;2024-02-26T01:21:40;8.53;73.55
82788;DHT22;72529;51.786;4.662;2024-02-26T01:24:05;8.53;73.44
82788;DHT22;72529;51.786;4.662;2024-02-26T01:26:31;8.65;73.60
82788;DHT22;72529;51.786;4.662;2024-02-26T01:28:56;8.70;72.92
82788;DHT22;72529;51.786;4.662;2024-02-26T01:31:22;8.59;73.21
82788;DHT22;72529;51.786;4.662;2024-02-26T01:33:47;8.57;73.08
82788;DHT22;72529;51.786;4.662;2024-02-26T01:36:13;8.63;73.30
82788;DHT22;72529;51.786;4.662;2024-02-26T01:38:38;8.48;73.68
82788;DHT22;72529;51.786;4.662;2024-02-26T01:41:03;8.59;73.42
82788;DHT22;72529;51.786;4.662;2024-02-26T01:43:29;8.55;73.61
82788;DHT22;72529;51.786;4.662;2024-02-26T01:45:55;8.42;73.99
82788;DHT22;72529;51.786;4.662;2024-02-26T01:48:20;8.38;73.95
82788;DHT22;72529;51.786;4.662;2024-02-26T01:50:46;8.36;74.31
82788;DHT22;72529;51.786;4.662;2024-02-26T01:53:12;8.41;74.01
82788;DHT22;72529;51.786;4.662;2024-02-26T01:55:38;8.38;73.84
82788;DHT22;72529;51.786;4.662;2024-02-26T01:58:05;8.38;73.93
82788;DHT22;72529;51.786;4.662;2024-02-26T02:00:31;8.35;74.14
82788;DHT22;72529;51.786;4.662;2024-02-26T02:02:57;8.38;74.16
82788;DHT22;72529;51.786;4.662;2024-02-26T02:05:23;8.42;74.10
82788;DHT22;72529;51.786;4.662;2024-02-26T02:07:50;8.34;74.36
82788;DHT22;72529;51.786;4.662;2024-02-26T02:10:16;8.34;74.06
82788;DHT22;72529;51.786;4.662;2024-02-26T02:12:43;8.29;74.48
82788;DHT22;72529;51.786;4.662;2024-02-26T02:15:09;8.34;74.72
82788;DHT22;72529;51.786;4.662;2024-02-26T02:17:34;8.28;74.63
82788;DHT22;72529;51.786;4.662;2024-02-26T02:20:00;8.18;74.89
82788;DHT22;72529;51.786;4.662;2024-02-26T02:22:25;8.21;74.90
82788;DHT22;72529;51.786;4.662;2024-02-26T02:24:52;8.21;75.14
82788;DHT22;72529;51.786;4.662;2024-02-26T02:27:19;8.18;75.04
82788;DHT22;72529;51.786;4.662;2024-02-26T02:29:46;8.22;75.35
82788;DHT22;72529;51.786;4.662;2024-02-26T02:32:14;8.28;75.39
82788;DHT22;72529;51.786;4.662;2024-02-26T02:34:41;8.22;75.50
82788;DHT22;72529;51.786;4.662;2024-02-26T02:37:06;8.11;75.88
82788;DHT22;72529;51.786;4.662;2024-02-26T02:39:32;8.09;76.47
82788;DHT22;72529;51.786;4.662;2024-02-26T02:41:57;8.12;76.60
82788;DHT22;72529;51.786;4.662;2024-02-26T02:44:22;8.09;76.71
82788;DHT22;72529;51.786;4.662;2024-02-26T02:46:48;8.05;77.08
82788;DHT22;72529;51.786;4.662;2024-02-26T02:49:13;7.98;77.10
82788;DHT22;72529;51.786;4.662;2024-02-26T02:51:39;8.02;77.00
82788;DHT22;72529;51.786;4.662;2024-02-26T02:54:05;7.99;76.93
82788;DHT22;72529;51.786;4.662;2024-02-26T02:56:30;7.95;77.34
82788;DHT22;72529;51.786;4.662;2024-02-26T02:58:56;7.92;77.55
82788;DHT22;72529;51.786;4.662;2024-02-26T03:01:21;7.91;77.49
82788;DHT22;72529;51.786;4.662;2024-02-26T03:03:47;7.90;77.67
82788;DHT22;72529;51.786;4.662;2024-02-26T03:06:12;7.85;77.45
82788;DHT22;72529;51.786;4.662;2024-02-26T03:08:37;7.82;77.85
82788;DHT22;72529;51.786;4.662;2024-02-26T03:11:04;7.95;77.43
82788;DHT22;72529;51.786;4.662;2024-02-26T03:13:29;7.94;77.02
82788;DHT22;72529;51.786;4.662;2024-02-26T03:15:55;7.92;77.06
82788;DHT22;72529;51.786;4.662;2024-02-26T03:18:20;7.90;77.28
82788;DHT22;72529;51.786;4.662;2024-02-26T03:20:46;7.84;77.59
82788;DHT22;72529;51.786;4.662;2024-02-26T03:23:11;7.90;77.68
82788;DHT22;72529;51.786;4.662;2024-02-26T03:25:41;7.99;77.20
82788;DHT22;72529;51.786;4.662;2024-02-26T03:28:07;7.98;77.33
82788;DHT22;72529;51.786;4.662;2024-02-26T03:30:32;7.99;76.68
82788;DHT22;72529;51.786;4.662;2024-02-26T03:32:58;7.91;77.32
82788;DHT22;72529;51.786;4.662;2024-02-26T03:35:23;7.84;77.51
82788;DHT22;72529;51.786;4.662;2024-02-26T03:37:48;7.84;77.57
82788;DHT22;72529;51.786;4.662;2024-02-26T03:40:15;7.87;76.96
82788;DHT22;72529;51.786;4.662;2024-02-26T03:42:41;7.82;77.27
82788;DHT22;72529;51.786;4.662;2024-02-26T03:45:07;7.75;77.42
82788;DHT22;72529;51.786;4.662;2024-02-26T03:47:32;7.77;76.95
82788;DHT22;72529;51.786;4.662;2024-02-26T03:49:57;7.80;77.38
82788;DHT22;72529;51.786;4.662;2024-02-26T03:52:24;7.75;76.97
82788;DHT22;72529;51.786;4.662;2024-02-26T03:54:50;7.84;76.88
82788;DHT22;72529;51.786;4.662;2024-02-26T03:57:15;7.75;77.37
82788;DHT22;72529;51.786;4.662;2024-02-26T03:59:41;7.81;77.13
82788;DHT22;72529;51.786;4.662;2024-02-26T04:02:06;7.84;76.98
82788;DHT22;72529;51.786;4.662;2024-02-26T04:04:34;7.70;77.25
82788;DHT22;72529;51.786;4.662;2024-02-26T04:07:00;7.74;77.11
82788;DHT22;72529;51.786;4.662;2024-02-26T04:09:25;7.75;77.36
82788;DHT22;72529;51.786;4.662;2024-02-26T04:11:50;7.70;77.56
82788;DHT22;72529;51.786;4.662;2024-02-26T04:14:16;7.63;77.56
82788;DHT22;72529;51.786;4.662;2024-02-26T04:16:41;7.64;77.96
82788;DHT22;72529;51.786;4.662;2024-02-26T04:19:07;7.78;77.54
82788;DHT22;72529;51.786;4.662;2024-02-26T04:21:33;7.70;77.38
82788;DHT22;72529;51.786;4.662;2024-02-26T04:23:58;7.74;77.70
82788;DHT22;72529;51.786;4.662;2024-02-26T04:26:27;7.71;77.60
82788;DHT22;72529;51.786;4.662;2024-02-26T04:28:52;7.74;77.65
82788;DHT22;72529;51.786;4.662;2024-02-26T04:31:18;7.66;77.76
82788;DHT22;72529;51.786;4.662;2024-02-26T04:33:44;7.56;77.59
82788;DHT22;72529;51.786;4.662;2024-02-26T04:36:15;7.54;77.81
82788;DHT22;72529;51.786;4.662;2024-02-26T04:38:43;7.49;78.25
82788;DHT22;72529;51.786;4.662;2024-02-26T04:41:08;7.47;78.30
82788;DHT22;72529;51.786;4.662;2024-02-26T04:43:34;7.57;78.21
82788;DHT22;72529;51.786;4.662;2024-02-26T04:45:59;7.57;78.07
82788;DHT22;72529;51.786;4.662;2024-02-26T04:48:24;7.47;78.32
82788;DHT22;72529;51.786;4.662;2024-02-26T04:50:50;7.59;77.92
82788;DHT22;72529;51.786;4.662;2024-02-26T04:53:15;7.59;77.79
82788;DHT22;72529;51.786;4.662;2024-02-26T04:55:40;7.57;77.93
82788;DHT22;72529;51.786;4.662;2024-02-26T04:58:06;7.51;78.10
82788;DHT22;72529;51.786;4.662;2024-02-26T05:00:31;7.56;78.28
82788;DHT22;72529;51.786;4.662;2024-02-26T05:02:57;7.59;77.69
82788;DHT22;72529;51.786;4.662;2024-02-26T05:05:22;7.63;77.82
82788;DHT22;72529;51.786;4.662;2024-02-26T05:07:47;7.60;77.98
82788;DHT22;72529;51.786;4.662;2024-02-26T05:10:13;7.64;77.40
82788;DHT22;72529;51.786;4.662;2024-02-26T05:12:38;7.66;77.25
82788;DHT22;72529;51.786;4.662;2024-02-26T05:15:04;7.70;77.28
82788;DHT22;72529;51.786;4.662;2024-02-26T05:17:30;7.71;77.27
82788;DHT22;72529;51.786;4.662;2024-02-26T05:19:55;7.67;77.22
82788;DHT22;72529;51.786;4.662;2024-02-26T05:22:21;7.67;77.44
82788;DHT22;72529;51.786;4.662;2024-02-26T05:24:46;7.67;77.34
82788;DHT22;72529;51.786;4.662;2024-02-26T05:27:11;7.67;77.27
82788;DHT22;72529;51.786;4.662;2024-02-26T05:29:37;7.61;77.29
82788;DHT22;72529;51.786;4.662;2024-02-26T05:32:03;7.64;77.55
82788;DHT22;72529;51.786;4.662;2024-02-26T05:34:29;7.66;77.60
82788;DHT22;72529;51.786;4.662;2024-02-26T05:36:55;7.67;77.30
82788;DHT22;72529;51.786;4.662;2024-02-26T05:39:21;7.70;77.49
82788;DHT22;72529;51.786;4.662;2024-02-26T05:41:46;7.66;77.44
82788;DHT22;72529;51.786;4.662;2024-02-26T05:44:12;7.59;77.42
82788;DHT22;72529;51.786;4.662;2024-02-26T05:46:37;7.63;77.37
82788;DHT22;72529;51.786;4.662;2024-02-26T05:49:03;7.57;77.69
82788;DHT22;72529;51.786;4.662;2024-02-26T05:51:28;7.60;77.45
82788;DHT22;72529;51.786;4.662;2024-02-26T05:53:54;7.56;77.51
82788;DHT22;72529;51.786;4.662;2024-02-26T05:56:21;7.54;77.59
82788;DHT22;72529;51.786;4.662;2024-02-26T05:58:47;7.53;77.74
82788;DHT22;72529;51.786;4.662;2024-02-26T06:01:13;7.59;77.86
82788;DHT22;72529;51.786;4.662;2024-02-26T06:03:38;7.57;77.67
82788;DHT22;72529;51.786;4.662;2024-02-26T06:06:04;7.63;77.86
82788;DHT22;72529;51.786;4.662;2024-02-26T06:08:30;7.71;77.81
82788;DHT22;72529;51.786;4.662;2024-02-26T06:10:56;7.69;77.53
82788;DHT22;72529;51.786;4.662;2024-02-26T06:13:21;7.64;77.40
82788;DHT22;72529;51.786;4.662;2024-02-26T06:15:47;7.60;77.61
82788;DHT22;72529;51.786;4.662;2024-02-26T06:18:13;7.56;78.12
82788;DHT22;72529;51.786;4.662;2024-02-26T06:20:39;7.57;78.15
82788;DHT22;72529;51.786;4.662;2024-02-26T06:23:05;7.61;77.61
82788;DHT22;72529;51.786;4.662;2024-02-26T06:25:30;7.54;77.87
82788;DHT22;72529;51.786;4.662;2024-02-26T06:27:56;7.51;78.07
82788;DHT22;72529;51.786;4.662;2024-02-26T06:30:21;7.46;78.19
82788;DHT22;72529;51.786;4.662;2024-02-26T06:32:47;7.51;78.54
82788;DHT22;72529;51.786;4.662;2024-02-26T06:35:12;7.49;78.02
82788;DHT22;72529;51.786;4.662;2024-02-26T06:37:38;7.50;77.87
82788;DHT22;72529;51.786;4.662;2024-02-26T06:40:04;7.50;78.66
82788;DHT22;72529;51.786;4.662;2024-02-26T06:42:31;7.49;78.87
82788;DHT22;72529;51.786;4.662;2024-02-26T06:44:57;7.51;78.13
82788;DHT22;72529;51.786;4.662;2024-02-26T06:47:23;7.57;78.61
82788;DHT22;72529;51.786;4.662;2024-02-26T06:49:48;7.54;78.44
82788;DHT22;72529;51.786;4.662;2024-02-26T06:52:14;7.61;78.36
82788;DHT22;72529;51.786;4.662;2024-02-26T06:54:39;7.60;78.48
82788;DHT22;72529;51.786;4.662;2024-02-26T06:57:05;7.54;78.68
82788;DHT22;72529;51.786;4.662;2024-02-26T06:59:30;7.59;78.63
82788;DHT22;72529;51.786;4.662;2024-02-26T07:01:56;7.57;78.50
82788;DHT22;72529;51.786;4.662;2024-02-26T07:04:21;7.57;78.46
82788;DHT22;72529;51.786;4.662;2024-02-26T07:06:47;7.54;78.73
82788;DHT22;72529;51.786;4.662;2024-02-26T07:09:12;7.54;78.88
82788;DHT22;72529;51.786;4.662;2024-02-26T07:11:38;7.49;78.77
82788;DHT22;72529;51.786;4.662;2024-02-26T07:14:08;7.43;79.28
82788;DHT22;72529;51.786;4.662;2024-02-26T07:16:33;7.43;79.50
82788;DHT22;72529;51.786;4.662;2024-02-26T07:18:59;7.44;79.69
82788;DHT22;72529;51.786;4.662;2024-02-26T07:21:24;7.57;79.22
82788;DHT22;72529;51.786;4.662;2024-02-26T07:23:50;7.53;79.72
82788;DHT22;72529;51.786;4.662;2024-02-26T07:26:15;7.53;79.71
82788;DHT22;72529;51.786;4.662;2024-02-26T07:28:42;7.56;79.66
82788;DHT22;72529;51.786;4.662;2024-02-26T07:31:08;7.49;79.81
82788;DHT22;72529;51.786;4.662;2024-02-26T07:33:33;7.42;80.28
82788;DHT22;72529;51.786;4.662;2024-02-26T07:35:59;7.36;80.40
82788;DHT22;72529;51.786;4.662;2024-02-26T07:38:24;7.33;80.39
82788;DHT22;72529;51.786;4.662;2024-02-26T07:40:50;7.31;80.62
82788;DHT22;72529;51.786;4.662;2024-02-26T07:43:15;7.30;80.54
82788;DHT22;72529;51.786;4.662;2024-02-26T07:45:40;7.26;80.74
82788;DHT22;72529;51.786;4.662;2024-02-26T07:48:06;7.19;81.28
82788;DHT22;72529;51.786;4.662;2024-02-26T07:50:32;7.29;81.23
82788;DHT22;72529;51.786;4.662;2024-02-26T07:52:57;7.23;81.07
82788;DHT22;72529;51.786;4.662;2024-02-26T07:55:23;7.20;81.26
82788;DHT22;72529;51.786;4.662;2024-02-26T07:57:49;7.20;81.24
82788;DHT22;72529;51.786;4.662;2024-02-26T08:00:15;7.17;81.46
82788;DHT22;72529;51.786;4.662;2024-02-26T08:02:43;7.26;81.33
82788;DHT22;72529;51.786;4.662;2024-02-26T08:05:09;7.19;81.01
82788;DHT22;72529;51.786;4.662;2024-02-26T08:07:34;7.19;81.71
82788;DHT22;72529;51.786;4.662;2024-02-26T08:10:00;7.16;81.90
82788;DHT22;72529;51.786;4.662;2024-02-26T08:12:25;7.19;81.78
82788;DHT22;72529;51.786;4.662;2024-02-26T08:14:51;7.20;81.77
82788;DHT22;72529;51.786;4.662;2024-02-26T08:17:16;7.19;81.73
82788;DHT22;72529;51.786;4.662;2024-02-26T08:19:42;7.22;81.68
82788;DHT22;72529;51.786;4.662;2024-02-26T08:22:09;7.24;81.64
82788;DHT22;72529;51.786;4.662;2024-02-26T08:24:44;7.23;81.77
82788;DHT22;72529;51.786;4.662;2024-02-26T08:27:10;7.24;81.49
82788;DHT22;72529;51.786;4.662;2024-02-26T08:29:35;7.29;81.88
82788;DHT22;72529;51.786;4.662;2024-02-26T08:32:01;7.30;81.77
82788;DHT22;72529;51.786;4.662;2024-02-26T08:34:26;7.29;81.65
82788;DHT22;72529;51.786;4.662;2024-02-26T08:36:52;7.20;81.62
82788;DHT22;72529;51.786;4.662;2024-02-26T08:39:17;7.22;81.72
82788;DHT22;72529;51.786;4.662;2024-02-26T08:41:44;7.15;81.91
82788;DHT22;72529;51.786;4.662;2024-02-26T08:44:09;7.19;82.49
82788;DHT22;72529;51.786;4.662;2024-02-26T08:46:35;7.24;82.60
82788;DHT22;72529;51.786;4.662;2024-02-26T08:49:00;7.27;82.41
82788;DHT22;72529;51.786;4.662;2024-02-26T08:51:26;7.23;82.26
82788;DHT22;72529;51.786;4.662;2024-02-26T08:53:51;7.27;82.59
82788;DHT22;72529;51.786;4.662;2024-02-26T08:56:17;7.39;82.36
82788;DHT22;72529;51.786;4.662;2024-02-26T08:58:45;7.26;82.04
82788;DHT22;72529;51.786;4.662;2024-02-26T09:01:16;7.27;82.62
82788;DHT22;72529;51.786;4.662;2024-02-26T09:03:42;7.22;82.20
82788;DHT22;72529;51.786;4.662;2024-02-26T09:06:08;7.22;82.54
82788;DHT22;72529;51.786;4.662;2024-02-26T09:08:33;7.22;82.35
82788;DHT22;72529;51.786;4.662;2024-02-26T09:11:01;7.22;82.44
82788;DHT22;72529;51.786;4.662;2024-02-26T09:13:26;7.24;82.78
82788;DHT22;72529;51.786;4.662;2024-02-26T09:15:52;7.29;82.74
82788;DHT22;72529;51.786;4.662;2024-02-26T09:18:17;7.31;82.69
82788;DHT22;72529;51.786;4.662;2024-02-26T09:20:42;7.33;82.12
82788;DHT22;72529;51.786;4.662;2024-02-26T09:23:09;7.27;82.42
82788;DHT22;72529;51.786;4.662;2024-02-26T09:25:34;7.23;82.58
82788;DHT22;72529;51.786;4.662;2024-02-26T09:28:01;7.33;82.54
82788;DHT22;72529;51.786;4.662;2024-02-26T09:30:26;7.29;82.48
82788;DHT22;72529;51.786;4.662;2024-02-26T09:32:51;7.29;82.58
82788;DHT22;72529;51.786;4.662;2024-02-26T09:35:17;7.40;82.39
82788;DHT22;72529;51.786;4.662;2024-02-26T09:37:42;7.37;82.26
82788;DHT22;72529;51.786;4.662;2024-02-26T09:40:10;7.36;82.26
82788;DHT22;72529;51.786;4.662;2024-02-26T09:42:44;7.39;81.93
82788;DHT22;72529;51.786;4.662;2024-02-26T09:45:18;7.39;82.26
82788;DHT22;72529;51.786;4.662;2024-02-26T09:47:45;7.37;81.97
82788;DHT22;72529;51.786;4.662;2024-02-26T09:50:13;7.46;82.10
82788;DHT22;72529;51.786;4.662;2024-02-26T09:52:41;7.36;82.22
82788;DHT22;72529;51.786;4.662;2024-02-26T09:55:08;7.47;82.31
82788;DHT22;72529;51.786;4.662;2024-02-26T09:57:37;7.46;81.86
82788;DHT22;72529;51.786;4.662;2024-02-26T10:00:04;7.36;82.00
82788;DHT22;72529;51.786;4.662;2024-02-26T10:02:35;7.26;82.06
82788;DHT22;72529;51.786;4.662;2024-02-26T10:05:02;7.26;82.44
82788;DHT22;72529;51.786;4.662;2024-02-26T10:07:30;7.24;82.79
82788;DHT22;72529;51.786;4.662;2024-02-26T10:09:56;7.26;82.51
82788;DHT22;72529;51.786;4.662;2024-02-26T10:12:21;7.33;82.57
82788;DHT22;72529;51.786;4.662;2024-02-26T10:14:47;7.27;82.51
82788;DHT22;72529;51.786;4.662;2024-02-26T10:17:12;7.30;82.37
82788;DHT22;72529;51.786;4.662;2024-02-26T10:19:38;7.27;82.54
82788;DHT22;72529;51.786;4.662;2024-02-26T10:22:03;7.26;82.57
82788;DHT22;72529;51.786;4.662;2024-02-26T10:24:32;7.29;82.59
82788;DHT22;72529;51.786;4.662;2024-02-26T10:26:59;7.30;82.79
82788;DHT22;72529;51.786;4.662;2024-02-26T10:29:25;7.29;82.42
82788;DHT22;72529;51.786;4.662;2024-02-26T10:31:52;7.26;82.54
82788;DHT22;72529;51.786;4.662;2024-02-26T10:34:18;7.29;82.62
82788;DHT22;72529;51.786;4.662;2024-02-26T10:36:44;7.29;82.76
82788;DHT22;72529;51.786;4.662;2024-02-26T10:39:12;7.43;82.34
82788;DHT22;72529;51.786;4.662;2024-02-26T10:41:37;7.30;82.12
82788;DHT22;72529;51.786;4.662;2024-02-26T10:44:04;7.20;82.55
82788;DHT22;72529;51.786;4.662;2024-02-26T10:46:29;7.19;83.10
82788;DHT22;72529;51.786;4.662;2024-02-26T10:48:55;7.22;83.39
82788;DHT22;72529;51.786;4.662;2024-02-26T10:51:28;7.30;82.89
82788;DHT22;72529;51.786;4.662;2024-02-26T10:53:56;7.22;83.10
82788;DHT22;72529;51.786;4.662;2024-02-26T10:56:28;7.29;82.94
82788;DHT22;72529;51.786;4.662;2024-02-26T10:58:57;7.23;82.82
82788;DHT22;72529;51.786;4.662;2024-02-26T11:01:24;7.23;83.02
82788;DHT22;72529;51.786;4.662;2024-02-26T11:03:52;7.23;82.77
82788;DHT22;72529;51.786;4.662;2024-02-26T11:06:21;7.19;83.05
82788;DHT22;72529;51.786;4.662;2024-02-26T11:08:50;7.22;83.37
82788;DHT22;72529;51.786;4.662;2024-02-26T11:11:17;7.20;83.34
82788;DHT22;72529;51.786;4.662;2024-02-26T11:13:47;7.16;83.43
82788;DHT22;72529;51.786;4.662;2024-02-26T11:16:21;7.17;83.32
82788;DHT22;72529;51.786;4.662;2024-02-26T11:18:48;7.26;83.01
82788;DHT22;72529;51.786;4.662;2024-02-26T11:21:17;7.16;83.26
82788;DHT22;72529;51.786;4.662;2024-02-26T11:23:46;7.27;83.08
82788;DHT22;72529;51.786;4.662;2024-02-26T11:26:15;7.37;83.32
82788;DHT22;72529;51.786;4.662;2024-02-26T11:28:43;7.34;83.33
82788;DHT22;72529;51.786;4.662;2024-02-26T11:31:10;7.34;83.07
82788;DHT22;72529;51.786;4.662;2024-02-26T11:33:38;7.30;82.84
82788;DHT22;72529;51.786;4.662;2024-02-26T11:36:11;7.29;83.06
82788;DHT22;72529;51.786;4.662;2024-02-26T11:38:37;7.29;83.41
82788;DHT22;72529;51.786;4.662;2024-02-26T11:41:04;7.26;83.64
82788;DHT22;72529;51.786;4.662;2024-02-26T11:43:50;7.33;83.45
82788;DHT22;72529;51.786;4.662;2024-02-26T11:46:30;7.34;83.12
82788;DHT22;72529;51.786;4.662;2024-02-26T11:49:29;7.31;83.47
82788;DHT22;72529;51.786;4.662;2024-02-26T11:51:51;7.37;83.45
82788;DHT22;72529;51.786;4.662;2024-02-26T11:54:48;7.40;83.36
82788;DHT22;72529;51.786;4.662;2024-02-26T12:02:52;7.44;83.38
82788;DHT22;72529;51.786;4.662;2024-02-26T12:05:31;7.53;83.34
82788;DHT22;72529;51.786;4.662;2024-02-26T12:08:03;7.47;83.15
82788;DHT22;72529;51.786;4.662;2024-02-26T12:10:33;7.46;83.17
82788;DHT22;72529;51.786;4.662;2024-02-26T12:13:16;7.42;83.53
82788;DHT22;72529;51.786;4.662;2024-02-26T12:15:55;7.46;83.62
82788;DHT22;72529;51.786;4.662;2024-02-26T12:18:22;7.50;83.36
82788;DHT22;72529;51.786;4.662;2024-02-26T12:21:01;7.44;83.45
82788;DHT22;72529;51.786;4.662;2024-02-26T12:23:27;7.46;83.75
82788;DHT22;72529;51.786;4.662;2024-02-26T12:25:58;7.49;83.92
82788;DHT22;72529;51.786;4.662;2024-02-26T12:28:28;7.47;83.89
82788;DHT22;72529;51.786;4.662;2024-02-26T12:30:54;7.57;83.62
82788;DHT22;72529;51.786;4.662;2024-02-26T12:33:20;7.60;83.42
82788;DHT22;72529;51.786;4.662;2024-02-26T12:35:45;7.51;83.37
82788;DHT22;72529;51.786;4.662;2024-02-26T12:38:15;7.57;83.35
82788;DHT22;72529;51.786;4.662;2024-02-26T12:40:40;7.60;83.61
82788;DHT22;72529;51.786;4.662;2024-02-26T12:43:07;7.71;83.42
82788;DHT22;72529;51.786;4.662;2024-02-26T12:45:39;7.74;83.45
82788;DHT22;72529;51.786;4.662;2024-02-26T12:48:06;7.77;83.05
82788;DHT22;72529;51.786;4.662;2024-02-26T12:50:31;7.78;83.23
82788;DHT22;72529;51.786;4.662;2024-02-26T12:52:58;7.78;82.90
82788;DHT22;72529;51.786;4.662;2024-02-26T12:55:24;7.82;82.91
82788;DHT22;72529;51.786;4.662;2024-02-26T12:57:52;7.87;83.06
82788;DHT22;72529;51.786;4.662;2024-02-26T13:00:25;7.81;83.24
82788;DHT22;72529;51.786;4.662;2024-02-26T13:02:52;7.81;83.25
82788;DHT22;72529;51.786;4.662;2024-02-26T13:05:20;7.80;83.28
82788;DHT22;72529;51.786;4.662;2024-02-26T13:07:46;7.82;83.38
82788;DHT22;72529;51.786;4.662;2024-02-26T13:10:15;7.95;82.91
82788;DHT22;72529;51.786;4.662;2024-02-26T13:12:48;7.87;82.68
82788;DHT22;72529;51.786;4.662;2024-02-26T13:15:17;7.90;82.59
82788;DHT22;72529;51.786;4.662;2024-02-26T13:17:47;7.91;82.76
82788;DHT22;72529;51.786;4.662;2024-02-26T13:20:25;7.91;82.50
82788;DHT22;72529;51.786;4.662;2024-02-26T13:22:50;7.92;82.54
82788;DHT22;72529;51.786;4.662;2024-02-26T13:25:20;7.90;82.66
82788;DHT22;72529;51.786;4.662;2024-02-26T13:27:46;7.94;82.54
82788;DHT22;72529;51.786;4.662;2024-02-26T13:30:12;7.95;82.83
82788;DHT22;72529;51.786;4.662;2024-02-26T13:32:41;8.01;82.33
82788;DHT22;72529;51.786;4.662;2024-02-26T13:35:11;7.97;82.51
82788;DHT22;72529;51.786;4.662;2024-02-26T13:37:38;8.01;82.60
82788;DHT22;72529;51.786;4.662;2024-02-26T13:40:08;8.02;82.76
82788;DHT22;72529;51.786;4.662;2024-02-26T13:42:37;8.09;82.87
82788;DHT22;72529;51.786;4.662;2024-02-26T13:45:04;8.11;82.09
82788;DHT22;72529;51.786;4.662;2024-02-26T13:47:33;8.06;82.12
82788;DHT22;72529;51.786;4.662;2024-02-26T13:49:59;8.11;82.51
82788;DHT22;72529;51.786;4.662;2024-02-26T13:52:25;8.04;82.15
82788;DHT22;72529;51.786;4.662;2024-02-26T13:54:51;8.05;82.48
82788;DHT22;72529;51.786;4.662;2024-02-26T13:57:18;8.02;82.21
82788;DHT22;72529;51.786;4.662;2024-02-26T13:59:44;8.01;81.55
82788;DHT22;72529;51.786;4.662;2024-02-26T14:02:09;7.97;81.88
82788;DHT22;72529;51.786;4.662;2024-02-26T14:04:36;7.97;82.06
82788;DHT22;72529;51.786;4.662;2024-02-26T14:07:03;8.08;82.25
82788;DHT22;72529;51.786;4.662;2024-02-26T14:09:29;8.05;82.00
82788;DHT22;72529;51.786;4.662;2024-02-26T14:11:54;8.01;81.69
82788;DHT22;72529;51.786;4.662;2024-02-26T14:14:19;7.98;81.76
82788;DHT22;72529;51.786;4.662;2024-02-26T14:16:45;8.04;81.57
82788;DHT22;72529;51.786;4.662;2024-02-26T14:19:10;8.01;82.16
82788;DHT22;72529;51.786;4.662;2024-02-26T14:21:37;8.04;81.77
82788;DHT22;72529;51.786;4.662;2024-02-26T14:24:02;7.98;82.36
82788;DHT22;72529;51.786;4.662;2024-02-26T14:26:29;8.15;82.44
82788;DHT22;72529;51.786;4.662;2024-02-26T14:28:54;8.09;81.41
82788;DHT22;72529;51.786;4.662;2024-02-26T14:31:19;8.11;81.87
82788;DHT22;72529;51.786;4.662;2024-02-26T14:33:45;8.16;81.50
82788;DHT22;72529;51.786;4.662;2024-02-26T14:36:11;8.08;81.67
82788;DHT22;72529;51.786;4.662;2024-02-26T14:38:37;8.02;81.69
82788;DHT22;72529;51.786;4.662;2024-02-26T14:41:05;8.04;81.87
82788;DHT22;72529;51.786;4.662;2024-02-26T14:43:31;8.09;82.31
82788;DHT22;72529;51.786;4.662;2024-02-26T14:45:58;8.14;81.84
82788;DHT22;72529;51.786;4.662;2024-02-26T14:48:23;8.16;81.36
82788;DHT22;72529;51.786;4.662;2024-02-26T14:50:49;8.14;80.77
82788;DHT22;72529;51.786;4.662;2024-02-26T14:53:14;8.12;80.44
82788;DHT22;72529;51.786;4.662;2024-02-26T14:55:40;8.09;80.54
82788;DHT22;72529;51.786;4.662;2024-02-26T14:58:05;8.11;80.67
82788;DHT22;72529;51.786;4.662;2024-02-26T15:00:31;8.20;81.17
82788;DHT22;72529;51.786;4.662;2024-02-26T15:02:59;8.15;80.52
82788;DHT22;72529;51.786;4.662;2024-02-26T15:05:24;8.16;80.34
82788;DHT22;72529;51.786;4.662;2024-02-26T15:07:50;8.11;80.11
82788;DHT22;72529;51.786;4.662;2024-02-26T15:10:15;8.12;80.23
82788;DHT22;72529;51.786;4.662;2024-02-26T15:12:41;8.15;80.29
82788;DHT22;72529;51.786;4.662;2024-02-26T15:15:07;8.29;80.24
82788;DHT22;72529;51.786;4.662;2024-02-26T15:17:32;8.25;79.88
82788;DHT22;72529;51.786;4.662;2024-02-26T15:20:00;8.28;79.47
82788;DHT22;72529;51.786;4.662;2024-02-26T15:22:27;8.26;79.72
82788;DHT22;72529;51.786;4.662;2024-02-26T15:24:52;8.32;80.15
82788;DHT22;72529;51.786;4.662;2024-02-26T15:27:18;8.31;79.60
82788;DHT22;72529;51.786;4.662;2024-02-26T15:29:43;8.25;79.91
82788;DHT22;72529;51.786;4.662;2024-02-26T15:32:10;8.28;79.24
82788;DHT22;72529;51.786;4.662;2024-02-26T15:34:35;8.35;80.02
82788;DHT22;72529;51.786;4.662;2024-02-26T15:37:02;8.38;79.19
82788;DHT22;72529;51.786;4.662;2024-02-26T15:39:27;8.42;79.16
82788;DHT22;72529;51.786;4.662;2024-02-26T15:41:53;8.36;79.23
82788;DHT22;72529;51.786;4.662;2024-02-26T15:44:18;8.41;78.34
82788;DHT22;72529;51.786;4.662;2024-02-26T15:46:43;8.31;78.55